Time;durP1;ratioP1;P1;durP2;ratioP2;P2;SDS_P1;SDS_P2;PMS_P1;PMS_P2;Temp;Humidity;BMP_temperature;BMP_pressure;BME280_temperature;BME280_humidity;BME280_pressure;Samples;Min_cycle;Max_cycle;Signal;HPM_P1;HPM_P2
2024/01/28 00:00:19;;;;;;;28.60;11.13;;;;;;;0.60;100.00;102297.16;5012784;28;20521;-71
2024/01/28 00:02:48;;;;;;;25.25;11.40;;;;;;;0.55;100.00;102297.03;5024756;28;20038;-71
2024/01/28 00:05:19;;;;;;;21.13;10.77;;;;;;;0.50;100.00;102295.16;5019750;28;20069;-71
2024/01/28 00:07:48;;;;;;;32.03;11.88;;;;;;;0.37;100.00;102269.66;5042944;28;20522;-72
2024/01/28 00:10:16;;;;;;;23.60;10.80;;;;;;;0.41;100.00;102287.13;5002731;28;20053;-71
2024/01/28 00:12:46;;;;;;;24.88;11.43;;;;;;;0.41;100.00;102294.94;5030915;28;20599;-71
2024/01/28 00:15:16;;;;;;;17.92;8.32;;;;;;;0.34;100.00;102289.56;5038300;28;20087;-72
2024/01/28 00:17:45;;;;;;;27.52;12.00;;;;;;;0.33;100.00;102287.81;5019546;28;20711;-71
2024/01/28 00:20:14;;;;;;;23.92;11.10;;;;;;;0.26;100.00;102280.69;5002162;28;20045;-71
2024/01/28 00:22:43;;;;;;;49.17;22.92;;;;;;;0.21;100.00;102271.00;5031769;28;20048;-72
2024/01/28 00:25:11;;;;;;;24.48;11.55;;;;;;;0.42;100.00;102278.47;5026928;28;20095;-73
2024/01/28 00:27:41;;;;;;;23.35;11.45;;;;;;;0.38;100.00;102258.38;5020332;28;20060;-71
2024/01/28 00:30:11;;;;;;;22.05;11.13;;;;;;;0.46;100.00;102268.16;5031736;28;20041;-72
2024/01/28 00:32:42;;;;;;;22.33;11.18;;;;;;;0.32;100.00;102235.66;5023299;28;20050;-72
2024/01/28 00:35:10;;;;;;;21.80;11.65;;;;;;;0.45;100.00;102250.75;5021416;28;20114;-71
2024/01/28 00:37:40;;;;;;;22.05;11.30;;;;;;;0.57;100.00;102258.88;5020551;28;20089;-70
2024/01/28 00:40:09;;;;;;;24.60;11.57;;;;;;;0.58;100.00;102257.13;5016222;28;20049;-71
2024/01/28 00:42:39;;;;;;;24.42;10.93;;;;;;;0.52;100.00;102251.75;5026175;28;20045;-72
2024/01/28 00:45:10;;;;;;;25.63;12.27;;;;;;;0.46;100.00;102246.44;5006196;28;20040;-71
2024/01/28 00:47:41;;;;;;;24.38;11.93;;;;;;;0.38;100.00;102253.16;5037809;28;20033;-70
2024/01/28 00:50:12;;;;;;;27.45;11.05;;;;;;;0.27;100.00;102239.88;5012696;28;20485;-71
2024/01/28 00:52:41;;;;;;;26.73;12.05;;;;;;;0.38;100.00;102253.16;5042500;28;20037;-71
2024/01/28 00:55:10;;;;;;;25.95;11.43;;;;;;;0.32;100.00;102240.84;5041477;28;20053;-71
2024/01/28 00:57:40;;;;;;;27.50;12.30;;;;;;;0.22;100.00;102229.34;5034296;28;20038;-71
2024/01/28 01:00:12;;;;;;;29.13;11.65;;;;;;;0.29;100.00;102243.41;5012155;28;20073;-72
2024/01/28 01:02:40;;;;;;;26.67;11.82;;;;;;;0.24;100.00;102225.06;5039109;28;20511;-71
2024/01/28 01:05:09;;;;;;;23.63;11.75;;;;;;;0.30;100.00;102234.75;5035673;28;20057;-71
2024/01/28 01:07:39;;;;;;;22.60;10.77;;;;;;;0.33;100.00;102227.00;5025697;28;20050;-71
2024/01/28 01:10:09;;;;;;;24.75;10.98;;;;;;;0.45;100.00;102234.25;5035428;28;21559;-71
2024/01/28 01:12:39;;;;;;;24.45;11.07;;;;;;;0.42;100.00;102221.13;5022505;28;20081;-72
2024/01/28 01:15:08;;;;;;;22.88;11.13;;;;;;;0.25;100.00;102192.06;5037520;28;20472;-71
2024/01/28 01:17:44;;;;;;;25.17;10.43;;;;;;;0.43;100.00;102213.34;5021421;28;20119;-70
2024/01/28 01:20:17;;;;;;;21.42;11.70;;;;;;;0.41;100.00;102217.66;5020096;28;20048;-72
2024/01/28 01:22:48;;;;;;;25.52;11.65;;;;;;;0.41;100.00;102224.59;5032102;28;20048;-70
2024/01/28 01:25:17;;;;;;;25.75;11.25;;;;;;;0.37;100.00;102207.97;5026687;28;20081;-71
2024/01/28 01:27:48;;;;;;;24.50;11.20;;;;;;;0.37;100.00;102220.13;5025543;28;20108;-72
2024/01/28 01:30:21;;;;;;;23.00;10.55;;;;;;;0.30;100.00;102220.00;5021571;28;20045;-71
2024/01/28 01:32:49;;;;;;;21.98;11.45;;;;;;;0.28;100.00;102219.09;5024931;28;20069;-71
2024/01/28 01:35:19;;;;;;;23.92;11.63;;;;;;;0.27;100.00;102214.72;5029136;28;20088;-70
2024/01/28 01:37:49;;;;;;;23.35;10.75;;;;;;;0.28;100.00;102205.19;5025983;28;20048;-71
2024/01/28 01:40:18;;;;;;;23.42;11.38;;;;;;;0.27;100.00;102209.50;5018165;28;20068;-70
2024/01/28 01:42:47;;;;;;;21.40;10.55;;;;;;;0.23;100.00;102196.34;5005576;28;20581;-72
2024/01/28 01:45:18;;;;;;;22.95;10.73;;;;;;;0.31;100.00;102208.75;5030019;28;20637;-70
2024/01/28 01:47:47;;;;;;;21.48;10.85;;;;;;;0.27;100.00;102208.63;5046267;28;20052;-72
2024/01/28 01:50:19;;;;;;;26.77;11.45;;;;;;;0.24;100.00;102201.59;5016281;28;20045;-71
2024/01/28 01:52:49;;;;;;;29.67;12.02;;;;;;;0.24;100.00;102203.34;5042790;28;20052;-70
2024/01/28 01:55:19;;;;;;;23.70;11.43;;;;;;;0.21;100.00;102203.25;5032713;28;20421;-71
2024/01/28 01:57:48;;;;;;;24.85;11.40;;;;;;;0.19;100.00;102208.44;5025327;28;20045;-71
2024/01/28 02:00:18;;;;;;;23.50;11.30;;;;;;;0.15;100.00;102198.78;5030190;28;21466;-71
2024/01/28 02:02:49;;;;;;;19.73;10.90;;;;;;;0.14;100.00;102197.03;5011053;28;20049;-71
2024/01/28 02:05:19;;;;;;;22.58;11.60;;;;;;;0.14;100.00;102198.75;5040915;28;20046;-69
2024/01/28 02:07:49;;;;;;;26.40;11.73;;;;;;;0.02;100.00;102185.41;5038472;28;20048;-71
2024/01/28 02:10:19;;;;;;;25.17;11.65;;;;;;;0.01;100.00;102181.91;5018863;28;20053;-72
2024/01/28 02:12:49;;;;;;;24.55;11.10;;;;;;;0.04;100.00;102189.81;5047306;28;20055;-71
2024/01/28 02:15:23;;;;;;;22.75;10.55;;;;;;;-0.05;100.00;102173.97;5029648;28;20456;-71
2024/01/28 02:17:59;;;;;;;25.50;11.38;;;;;;;0.01;100.00;102189.72;5029868;28;20041;-71
2024/01/28 02:20:31;;;;;;;30.15;12.32;;;;;;;0.03;100.00;102192.38;5035629;28;20132;-71
2024/01/28 02:23:04;;;;;;;22.70;11.50;;;;;;;0.04;100.00;102191.53;4996452;28;20052;-71
2024/01/28 02:25:35;;;;;;;22.52;11.48;;;;;;;-0.07;100.00;102180.88;5040772;28;20045;-71
2024/01/28 02:28:05;;;;;;;;;;;;;;;0.00;100.00;102183.66;5023756;28;20056;-71
2024/01/28 02:30:36;;;;;;;22.17;10.82;;;;;;;0.03;100.00;102189.78;5033585;28;19933;-71
2024/01/28 02:33:05;;;;;;;28.13;11.27;;;;;;;-0.02;100.00;102181.88;5012995;28;20041;-71
2024/01/28 02:35:36;;;;;;;24.55;11.68;;;;;;;-0.02;100.00;102184.47;5020353;28;20037;-70
2024/01/28 02:38:04;;;;;;;18.98;10.10;;;;;;;-0.02;100.00;102182.75;5036759;28;20102;-71
2024/01/28 02:40:34;;;;;;;26.40;10.65;;;;;;;-0.03;100.00;102182.72;5015342;28;20041;-71
2024/01/28 02:43:05;;;;;;;19.13;10.15;;;;;;;-0.03;100.00;102181.00;5039476;28;20059;-71
2024/01/28 02:45:36;;;;;;;22.65;10.20;;;;;;;-0.02;100.00;102179.28;5034792;28;20052;-72
2024/01/28 02:48:08;;;;;;;22.70;10.45;;;;;;;-0.05;100.00;102171.38;5025123;28;20049;-73
2024/01/28 02:50:36;;;;;;;21.25;10.27;;;;;;;0.02;100.00;102173.25;5035129;28;22344;-72
2024/01/28 02:53:04;;;;;;;23.00;10.10;;;;;;;-0.01;100.00;102176.69;5028787;28;20524;-71
2024/01/28 02:55:37;;;;;;;27.17;10.70;;;;;;;0.04;100.00;102179.41;5033894;28;20079;-71
2024/01/28 02:58:06;;;;;;;16.60;9.48;;;;;;;-0.07;100.00;102166.13;5040995;28;20057;-71
2024/01/28 03:00:36;;;;;;;18.05;8.75;;;;;;;-0.03;100.00;102161.88;5022268;28;20399;-72
2024/01/28 03:03:05;;;;;;;22.67;9.00;;;;;;;0.05;100.00;102167.25;5032440;28;20104;-71
2024/01/28 03:05:33;;;;;;;18.20;8.95;;;;;;;0.00;100.00;102165.41;5039910;28;20462;-71
2024/01/28 03:08:06;;;;;;;21.33;9.57;;;;;;;0.05;100.00;102168.13;5045428;28;20502;-71
2024/01/28 03:10:36;;;;;;;19.25;8.98;;;;;;;-0.01;100.00;102165.41;4994671;28;20073;-71
2024/01/28 03:13:05;;;;;;;12.43;6.68;;;;;;;-0.01;100.00;102160.19;5024438;28;20041;-71
2024/01/28 03:15:33;;;;;;;22.17;8.40;;;;;;;0.04;100.00;102162.88;5039150;28;20422;-71
2024/01/28 03:18:06;;;;;;;19.75;8.63;;;;;;;-0.13;100.00;102139.03;5041827;28;20072;-73
2024/01/28 03:20:34;;;;;;;21.80;9.07;;;;;;;0.00;100.00;102161.97;5015912;28;20684;-71
2024/01/28 03:23:07;;;;;;;19.08;9.25;;;;;;;-0.02;100.00;102168.84;5029939;28;20048;-71
2024/01/28 03:25:37;;;;;;;18.25;8.77;;;;;;;-0.08;100.00;102153.94;5029473;28;20136;-72
2024/01/28 03:28:06;;;;;;;24.35;9.30;;;;;;;-0.09;100.00;102148.69;5046135;28;20163;-72
2024/01/28 03:30:34;;;;;;;16.67;8.52;;;;;;;-0.05;100.00;102150.53;5029920;28;20044;-71
2024/01/28 03:33:02;;;;;;;15.98;7.45;;;;;;;-0.08;100.00;102153.94;5037704;28;20046;-72
2024/01/28 03:35:31;;;;;;;19.98;8.52;;;;;;;-0.12;100.00;102151.22;5036861;28;20711;-72
2024/01/28 03:38:00;;;;;;;20.13;7.85;;;;;;;-0.12;100.00;102162.53;5015939;28;20045;-70
2024/01/28 03:40:31;;;;;;;16.42;8.43;;;;;;;-0.05;100.00;102164.44;4997469;28;20430;-70
2024/01/28 03:43:02;;;;;;;16.73;8.23;;;;;;;0.02;100.00;102162.84;5036265;28;20060;-71
2024/01/28 03:45:30;;;;;;;17.95;7.45;;;;;;;-0.03;100.00;102162.75;5025865;28;20405;-71
2024/01/28 03:47:58;;;;;;;19.23;7.68;;;;;;;0.00;100.00;102164.56;5028694;28;20050;-73
2024/01/28 03:50:29;;;;;;;18.77;8.07;;;;;;;-0.05;100.00;102174.88;5016707;28;22217;-72
2024/01/28 03:52:58;;;;;;;19.80;8.35;;;;;;;-0.09;100.00;102174.75;5025562;28;20422;-72
2024/01/28 03:55:30;;;;;;;19.05;8.20;;;;;;;-0.17;100.00;102164.16;5043055;28;20050;-70
2024/01/28 03:58:02;;;;;;;22.17;8.40;;;;;;;-0.21;100.00;102170.13;5041833;28;20043;-72
2024/01/28 04:00:34;;;;;;;21.45;7.88;;;;;;;-0.26;100.00;102173.44;5021252;28;20049;-72
2024/01/28 04:03:02;;;;;;;18.77;7.70;;;;;;;-0.37;100.00;102155.81;5020202;28;20041;-71
2024/01/28 04:05:32;;;;;;;13.43;8.15;;;;;;;-0.33;100.00;102166.31;5019196;28;20045;-72
2024/01/28 04:08:05;;;;;;;22.42;8.43;;;;;;;-0.28;100.00;102154.28;5024868;28;20049;-71
2024/01/28 04:10:35;;;;;;;18.55;7.97;;;;;;;-0.25;100.00;102162.19;5032982;28;20045;-70
2024/01/28 04:13:09;;;;;;;10.88;6.40;;;;;;;-0.26;100.00;102163.91;5021124;28;20564;-70
2024/01/28 04:15:38;;;;;;;16.67;8.68;;;;;;;-0.31;100.00;102162.00;5015420;28;20054;-71
2024/01/28 04:18:06;;;;;;;19.98;8.43;;;;;;;-0.41;100.00;102159.19;5007750;28;20053;-72
2024/01/28 04:20:35;;;;;;;23.65;9.18;;;;;;;-0.40;100.00;102168.75;5020390;28;20053;-71
2024/01/28 04:23:04;;;;;;;18.65;9.05;;;;;;;-0.48;100.00;102151.19;5026930;28;20076;-71
2024/01/28 04:25:38;;;;;;;20.05;8.68;;;;;;;-0.42;100.00;102157.41;5021636;28;20052;-71
2024/01/28 04:28:09;;;;;;;18.80;8.52;;;;;;;-0.54;100.00;102136.28;5042804;28;20045;-71
2024/01/28 04:30:37;;;;;;;26.45;8.98;;;;;;;-0.39;100.00;102143.63;5035456;28;20099;-71
2024/01/28 04:33:08;;;;;;;16.77;7.97;;;;;;;-0.40;100.00;102142.72;5036116;28;20052;-70
2024/01/28 04:35:37;;;;;;;21.35;8.20;;;;;;;-0.39;100.00;102136.69;5029411;28;20049;-70
2024/01/28 04:38:06;;;;;;;20.23;9.30;;;;;;;-0.39;100.00;102138.41;5032190;28;20111;-70
2024/01/28 04:40:34;;;;;;;19.38;8.48;;;;;;;-0.42;100.00;102136.59;5026280;28;20045;-70
2024/01/28 04:43:04;;;;;;;17.60;8.20;;;;;;;-0.46;100.00;102126.94;5020221;28;20084;-71
2024/01/28 04:45:34;;;;;;;18.50;8.18;;;;;;;-0.46;100.00;102133.88;5038449;28;20037;-71
2024/01/28 04:48:02;;;;;;;22.02;8.73;;;;;;;-0.45;100.00;102135.63;5043891;28;20132;-70
2024/01/28 04:50:32;;;;;;;18.55;8.25;;;;;;;-0.47;100.00;102129.50;5019514;28;20050;-70
2024/01/28 04:53:02;;;;;;;20.65;9.02;;;;;;;-0.53;100.00;102119.84;5037470;28;20049;-73
2024/01/28 04:55:34;;;;;;;19.20;8.35;;;;;;;-0.46;100.00;102145.16;5023170;28;20052;-71
2024/01/28 04:58:02;;;;;;;23.05;9.18;;;;;;;-0.50;100.00;102137.25;5026515;28;20067;-71
2024/01/28 05:00:32;;;;;;;19.15;8.43;;;;;;;-0.51;100.00;102131.19;5004585;28;20129;-71
2024/01/28 05:03:10;;;;;;;16.73;8.60;;;;;;;-0.47;100.00;102126.91;5033765;28;20049;-71
2024/01/28 05:05:39;;;;;;;16.73;7.93;;;;;;;-0.44;100.00;102125.25;5027834;28;20679;-70
2024/01/28 05:08:10;;;;;;;20.30;8.37;;;;;;;-0.42;100.00;102130.50;5026769;28;20041;-71
2024/01/28 05:10:43;;;;;;;20.88;9.25;;;;;;;-0.40;100.00;102131.44;5023265;28;20485;-71
2024/01/28 05:13:12;;;;;;;19.40;8.15;;;;;;;-0.37;100.00;102134.13;5042765;28;20607;-72
2024/01/28 05:15:41;;;;;;;19.45;7.60;;;;;;;-0.34;100.00;102128.13;5022206;28;20156;-71
2024/01/28 05:18:15;;;;;;;16.42;8.45;;;;;;;-0.38;100.00;102137.56;5028917;28;20069;-71
2024/01/28 05:20:43;;;;;;;18.00;7.72;;;;;;;-0.40;100.00;102116.69;5023383;28;20497;-71
2024/01/28 05:23:12;;;;;;;18.58;8.02;;;;;;;-0.26;100.00;102137.00;5039265;28;20092;-71
2024/01/28 05:25:41;;;;;;;23.20;8.30;;;;;;;-0.24;100.00;102127.50;5023377;28;20050;-72
2024/01/28 05:28:09;;;;;;;15.90;8.13;;;;;;;-0.24;100.00;102130.09;5026443;28;20048;-71
2024/01/28 05:30:38;;;;;;;26.45;8.65;;;;;;;-0.28;100.00;102118.72;5025837;28;20520;-72
2024/01/28 05:33:06;;;;;;;20.88;8.73;;;;;;;-0.30;100.00;102114.31;5014135;28;20115;-72
2024/01/28 05:35:36;;;;;;;20.67;9.55;;;;;;;-0.35;100.00;102111.63;5028502;28;20048;-71
2024/01/28 05:38:07;;;;;;;25.30;9.07;;;;;;;-0.34;100.00;102107.31;5036964;28;20072;-71
2024/01/28 05:40:36;;;;;;;18.10;8.77;;;;;;;-0.36;100.00;102110.75;5037888;28;21052;-70
2024/01/28 05:43:05;;;;;;;20.98;8.48;;;;;;;-0.46;100.00;102092.22;5033683;28;20053;-72
2024/01/28 05:45:33;;;;;;;16.65;8.55;;;;;;;-0.44;100.00;102101.84;5027820;28;20557;-71
2024/01/28 05:48:01;;;;;;;19.05;8.38;;;;;;;-0.45;100.00;102100.09;5038276;28;20113;-71
2024/01/28 05:50:30;;;;;;;19.10;8.85;;;;;;;-0.48;100.00;102091.34;5039629;28;20055;-71
2024/01/28 05:53:00;;;;;;;20.70;8.25;;;;;;;-0.51;100.00;102099.94;5028426;28;20455;-71
2024/01/28 05:55:30;;;;;;;20.45;8.48;;;;;;;-0.53;100.00;102109.44;5050878;28;20119;-71
2024/01/28 05:58:00;;;;;;;14.87;8.00;;;;;;;-0.56;100.00;102109.34;5032738;28;20065;-71
2024/01/28 06:00:28;;;;;;;17.13;7.57;;;;;;;-0.60;100.00;102112.72;5049202;28;20049;-76
2024/01/28 06:03:00;;;;;;;19.35;8.95;;;;;;;-0.62;100.00;102121.31;5029427;28;20042;-71
2024/01/28 06:05:29;;;;;;;16.88;7.95;;;;;;;-0.63;100.00;102120.44;5017370;28;20049;-71
2024/01/28 06:07:57;;;;;;;22.90;8.30;;;;;;;-0.59;100.00;102124.88;5033741;28;20932;-71
2024/01/28 06:10:28;;;;;;;18.15;8.55;;;;;;;-0.66;100.00;102117.78;5046698;28;20045;-71
2024/01/28 06:12:56;;;;;;;19.17;8.90;;;;;;;-0.71;100.00;102116.75;5018197;28;20044;-71
2024/01/28 06:15:26;;;;;;;22.83;9.07;;;;;;;-0.82;100.00;102107.78;5022333;28;20335;-71
2024/01/28 06:17:54;;;;;;;16.90;8.37;;;;;;;-0.76;100.00;102118.34;5025022;28;20037;-71
2024/01/28 06:20:35;;;;;;;19.50;8.77;;;;;;;-0.90;100.00;102093.69;5002945;28;20055;-71
2024/01/28 06:23:16;;;;;;;20.02;8.30;;;;;;;-0.75;100.00;102112.31;5017735;28;20064;-72
2024/01/28 06:25:51;;;;;;;19.35;8.35;;;;;;;-0.70;100.00;102110.72;5022111;28;20053;-71
2024/01/28 06:28:19;;;;;;;22.13;8.35;;;;;;;-0.68;100.00;102108.16;5028705;28;20445;-71
2024/01/28 06:30:47;;;;;;;21.63;8.35;;;;;;;-0.68;100.00;102115.97;5022844;28;20493;-71
2024/01/28 06:33:19;;;;;;;18.38;7.53;;;;;;;-0.70;100.00;102108.13;5025613;28;20064;-71
2024/01/28 06:35:49;;;;;;;21.45;8.25;;;;;;;-0.68;100.00;102113.38;5026277;28;20048;-71
2024/01/28 06:38:18;;;;;;;16.88;7.15;;;;;;;-0.73;100.00;102108.91;5025775;28;20132;-71
2024/01/28 06:40:48;;;;;;;18.23;8.05;;;;;;;-0.68;100.00;102109.03;5026591;28;20124;-72
2024/01/28 06:43:17;;;;;;;15.15;7.63;;;;;;;-0.61;100.00;102107.47;5019365;28;20121;-70
2024/01/28 06:45:46;;;;;;;19.83;8.18;;;;;;;-0.65;100.00;102105.66;5007708;28;20265;-71
2024/01/28 06:48:14;;;;;;;16.38;8.43;;;;;;;-0.67;100.00;102107.31;5040983;28;20053;-71
2024/01/28 06:50:45;;;;;;;19.70;8.10;;;;;;;-0.68;100.00;102110.75;5042021;28;20098;-71
2024/01/28 06:53:16;;;;;;;15.90;7.88;;;;;;;-0.72;100.00;102109.78;5034304;28;20113;-71
2024/01/28 06:55:44;;;;;;;17.90;7.65;;;;;;;-0.71;100.00;102107.22;5021465;28;20054;-71
2024/01/28 06:58:14;;;;;;;16.52;7.90;;;;;;;-0.71;100.00;102093.34;5040845;28;20051;-71
2024/01/28 07:00:43;;;;;;;14.90;7.65;;;;;;;-0.73;100.00;102075.09;5043847;28;20060;-71
2024/01/28 07:03:14;;;;;;;19.20;8.25;;;;;;;-0.63;100.00;102093.56;5008777;28;20041;-70
2024/01/28 07:05:45;;;;;;;16.27;7.97;;;;;;;-1.02;100.00;102042.25;5008406;28;20069;-72
2024/01/28 07:08:18;;;;;;;16.20;7.65;;;;;;;-0.66;100.00;102115.16;5044511;28;20084;-71
2024/01/28 07:10:56;;;;;;;16.73;7.85;;;;;;;-0.64;100.00;102102.19;5036981;28;20168;-71
2024/01/28 07:13:28;;;;;;;20.63;8.95;;;;;;;-0.65;100.00;102106.53;5025006;28;20523;-71
2024/01/28 07:15:56;;;;;;;14.82;7.55;;;;;;;-0.64;100.00;102102.19;5037623;28;20048;-70
2024/01/28 07:18:26;;;;;;;12.85;7.13;;;;;;;-0.64;100.00;102107.41;5054029;28;20092;-71
2024/01/28 07:20:57;;;;;;;18.55;7.75;;;;;;;-0.65;100.00;102093.53;5054315;28;20041;-71
2024/01/28 07:23:27;;;;;;;;;;;;;;;-0.64;100.00;102102.19;5031969;28;20050;-70
2024/01/28 07:25:55;;;;;;;15.52;6.82;;;;;;;-0.65;100.00;102101.31;5047189;28;19921;-71
2024/01/28 07:28:23;;;;;;;18.15;7.78;;;;;;;-0.66;100.00;102104.75;5026926;28;20061;-71
2024/01/28 07:30:53;;;;;;;21.17;7.60;;;;;;;-0.65;100.00;102119.53;5018141;28;20049;-72
2024/01/28 07:33:21;;;;;;;13.65;7.65;;;;;;;-0.78;100.00;102096.63;5026572;28;20060;-70
2024/01/28 07:35:50;;;;;;;16.75;7.47;;;;;;;-0.66;100.00;102106.47;5022263;28;20065;-72
2024/01/28 07:38:19;;;;;;;15.27;7.43;;;;;;;-0.62;100.00;102101.38;5043526;28;20042;-72
2024/01/28 07:40:46;;;;;;;18.05;7.45;;;;;;;-0.59;100.00;102096.25;5024409;28;20055;-70
2024/01/28 07:43:15;;;;;;;17.05;7.88;;;;;;;-0.62;100.00;102093.56;5019241;28;20550;-70
2024/01/28 07:45:46;;;;;;;15.85;7.00;;;;;;;-0.58;100.00;102090.22;5021273;28;20077;-71
2024/01/28 07:48:16;;;;;;;15.95;6.88;;;;;;;-0.55;100.00;102087.69;5022663;28;20046;-72
2024/01/28 07:50:45;;;;;;;15.43;7.85;;;;;;;-0.34;100.00;102091.69;5043972;28;20050;-72
2024/01/28 07:53:13;;;;;;;16.23;7.25;;;;;;;-0.20;100.00;102092.88;5023069;28;20046;-72
2024/01/28 07:55:42;;;;;;;14.95;7.22;;;;;;;-0.07;100.00;102085.41;5015582;28;20550;-71
2024/01/28 07:58:10;;;;;;;17.45;7.32;;;;;;;0.15;100.00;102094.59;5039514;28;20057;-70
2024/01/28 08:00:38;;;;;;;14.48;7.07;;;;;;;0.26;100.00;102097.44;5020398;28;20050;-71
2024/01/28 08:03:09;;;;;;;19.50;7.63;;;;;;;0.41;100.00;102096.88;5030748;28;20472;-71
2024/01/28 08:05:40;;;;;;;;;;;;;;;0.52;100.00;102100.59;5043809;28;20511;-73
2024/01/28 08:08:10;;;;;;;15.20;7.32;;;;;;;0.55;100.00;102096.31;5025794;28;19921;-71
2024/01/28 08:10:41;;;;;;;16.00;7.22;;;;;;;0.64;100.00;102106.06;5027289;28;20517;-71
2024/01/28 08:13:10;;;;;;;14.48;6.93;;;;;;;0.68;100.00;102111.38;5014886;28;20046;-70
2024/01/28 08:15:39;;;;;;;14.63;7.15;;;;;;;0.79;100.00;102110.72;5038122;28;20053;-71
2024/01/28 08:18:08;;;;;;;17.95;7.53;;;;;;;0.84;100.00;102104.75;5040471;28;20071;-72
2024/01/28 08:20:37;;;;;;;18.98;7.20;;;;;;;0.88;100.00;102100.47;5031859;28;20099;-72
2024/01/28 08:23:08;;;;;;;16.20;7.28;;;;;;;0.94;100.00;102104.09;5020270;28;20046;-71
2024/01/28 08:25:39;;;;;;;15.65;7.90;;;;;;;1.00;100.00;102105.91;5038185;28;20051;-72
2024/01/28 08:28:07;;;;;;;17.05;7.43;;;;;;;0.98;100.00;102107.63;5008888;28;20056;-71
2024/01/28 08:33:19;;;;;;;17.30;8.60;;;;;;;1.12;100.00;102097.44;5027722;28;20048;-72
2024/01/28 08:35:50;;;;;;;18.40;7.65;;;;;;;1.18;100.00;102106.28;5022825;28;20099;-71
2024/01/28 08:38:19;;;;;;;17.95;7.53;;;;;;;1.24;100.00;102095.06;5038610;28;20053;-71
2024/01/28 08:40:48;;;;;;;18.70;7.57;;;;;;;1.17;100.00;102073.19;5030691;28;20041;-72
2024/01/28 08:43:17;;;;;;;15.25;7.38;;;;;;;1.39;100.00;102106.66;4989626;28;20417;-71
2024/01/28 08:45:45;;;;;;;17.52;8.38;;;;;;;1.35;100.00;102089.19;5023190;28;20041;-72
2024/01/28 08:48:14;;;;;;;15.60;7.93;;;;;;;1.51;100.00;102099.91;5027359;28;20483;-72
2024/01/28 08:50:45;;;;;;;14.70;7.80;;;;;;;1.62;100.00;102109.66;5021314;28;20063;-71
2024/01/28 08:53:14;;;;;;;18.48;7.85;;;;;;;1.71;100.00;102107.22;5032114;28;20048;-71
2024/01/28 08:55:43;;;;;;;17.60;8.00;;;;;;;1.80;100.00;102111.69;5039665;28;20056;-72
2024/01/28 08:58:12;;;;;;;15.85;7.38;;;;;;;1.86;100.00;102108.31;5031867;28;20053;-71
2024/01/28 09:00:40;;;;;;;17.52;7.93;;;;;;;1.96;100.00;102108.47;5027055;28;20041;-71
2024/01/28 09:03:08;;;;;;;16.70;8.10;;;;;;;2.05;100.00;102121.66;5022351;28;20482;-71
2024/01/28 09:05:39;;;;;;;16.00;7.65;;;;;;;2.13;100.00;102116.56;5024283;28;20871;-71
2024/01/28 09:08:07;;;;;;;13.60;7.82;;;;;;;2.18;100.00;102117.53;5029900;28;20045;-72
2024/01/28 09:10:37;;;;;;;17.70;7.78;;;;;;;2.29;100.00;102121.16;5030937;28;20125;-71
2024/01/28 09:13:08;;;;;;;22.80;8.40;;;;;;;2.38;100.00;102115.19;5010144;28;20111;-71
2024/01/28 09:15:36;;;;;;;14.83;7.57;;;;;;;2.49;100.00;102123.19;5041376;28;20647;-72
2024/01/28 09:18:04;;;;;;;15.77;7.55;;;;;;;2.60;100.00;102126.81;5047816;28;20553;-71
2024/01/28 09:20:33;;;;;;;15.45;8.32;;;;;;;2.72;100.00;102124.34;5030538;28;20386;-71
2024/01/28 09:23:04;;;;;;;13.68;7.78;;;;;;;2.79;100.00;102132.31;5033346;28;20073;-72
2024/01/28 09:25:33;;;;;;;20.67;7.35;;;;;;;2.80;100.00;102118.38;5036965;28;20078;-71
2024/01/28 09:28:01;;;;;;;13.15;7.30;;;;;;;2.86;100.00;102124.53;5044252;28;20050;-72
2024/01/28 09:30:35;;;;;;;14.90;7.32;;;;;;;2.99;100.00;102127.28;5042089;28;20041;-72
2024/01/28 09:33:04;;;;;;;16.67;8.03;;;;;;;3.00;100.00;102115.97;5037904;28;20108;-72
2024/01/28 09:35:39;;;;;;;16.30;8.65;;;;;;;3.25;100.00;102129.34;5031583;28;20053;-72
2024/01/28 09:38:08;;;;;;;18.77;7.95;;;;;;;3.34;100.00;102124.19;5036488;28;20125;-71
2024/01/28 09:40:39;;;;;;;15.20;8.20;;;;;;;3.44;100.00;102110.34;5045973;28;20048;-71
2024/01/28 09:43:15;;;;;;;16.27;7.80;;;;;;;3.50;100.00;102110.38;5028318;28;20061;-72
2024/01/28 09:45:47;;;;;;;17.20;7.95;;;;;;;3.53;100.00;102111.28;5027815;28;20037;-71
2024/01/28 09:48:16;;;;;;;17.77;7.95;;;;;;;3.62;100.00;102120.97;5028459;28;20749;-73
2024/01/28 09:50:47;;;;;;;22.02;8.45;;;;;;;3.52;100.00;102087.72;5031075;28;20041;-71
2024/01/28 09:53:16;;;;;;;15.10;7.85;;;;;;;3.72;100.00;102114.09;5026136;28;20737;-71
2024/01/28 09:55:46;;;;;;;17.17;7.47;;;;;;;3.78;100.00;102111.50;5007596;28;20053;-72
2024/01/28 09:58:17;;;;;;;18.77;8.23;;;;;;;3.69;100.00;102091.34;5030469;28;20555;-71
2024/01/28 10:00:50;;;;;;;14.80;7.43;;;;;;;3.86;100.00;102108.09;5022751;28;20041;-71
2024/01/28 10:03:21;;;;;;;16.35;8.10;;;;;;;3.90;100.00;102097.63;5018332;28;20049;-71
2024/01/28 10:05:56;;;;;;;12.27;7.43;;;;;;;3.97;100.00;102107.28;5031526;28;20049;-71
2024/01/28 10:08:27;;;;;;;18.17;8.80;;;;;;;4.07;100.00;102117.00;5030740;28;20042;-72
2024/01/28 10:10:54;;;;;;;15.95;7.93;;;;;;;4.15;100.00;102118.78;5018488;28;20038;-71
2024/01/28 10:13:22;;;;;;;16.67;7.55;;;;;;;4.19;100.00;102111.81;5023203;28;20050;-72
2024/01/28 10:15:57;;;;;;;16.48;7.60;;;;;;;4.33;100.00;102118.03;5038703;28;20072;-72
2024/01/28 10:18:25;;;;;;;13.38;6.78;;;;;;;4.37;100.00;102100.56;5028705;28;20049;-72
2024/01/28 10:20:54;;;;;;;15.48;7.18;;;;;;;4.54;100.00;102105.03;5010251;28;20061;-72
2024/01/28 10:23:23;;;;;;;15.38;7.22;;;;;;;4.62;100.00;102117.31;5041950;28;20052;-72
2024/01/28 10:25:52;;;;;;;18.98;8.00;;;;;;;4.65;100.00;102106.81;5034876;28;20056;-70
2024/01/28 10:28:21;;;;;;;13.82;7.20;;;;;;;4.73;100.00;102107.72;5033876;28;20286;-71
2024/01/28 10:30:50;;;;;;;13.77;7.15;;;;;;;4.82;100.00;102108.66;5018521;28;20469;-71
2024/01/28 10:33:20;;;;;;;15.55;7.57;;;;;;;4.93;100.00;102104.31;5033492;28;20053;-70
2024/01/28 10:35:53;;;;;;;17.63;7.25;;;;;;;5.03;100.00;102099.97;5045363;28;20049;-72
2024/01/28 10:38:24;;;;;;;16.92;7.78;;;;;;;5.07;100.00;102103.47;5054750;28;20049;-70
2024/01/28 10:40:54;;;;;;;14.65;7.53;;;;;;;5.07;100.00;102091.22;5032874;28;20042;-72
2024/01/28 10:43:27;;;;;;;14.27;7.43;;;;;;;5.14;100.00;102081.63;5020786;28;20100;-71
2024/01/28 10:45:57;;;;;;;13.25;7.03;;;;;;;5.20;100.00;102082.50;5043620;28;20053;-72
2024/01/28 10:48:30;;;;;;;14.75;6.57;;;;;;;5.25;100.00;102080.75;5027803;28;20140;-72
2024/01/28 10:51:01;;;;;;;13.73;7.22;;;;;;;5.34;100.00;102084.28;5009613;28;20065;-71
2024/01/28 10:53:30;;;;;;;13.68;6.72;;;;;;;5.30;100.00;102072.91;5018333;28;20038;-71
2024/01/28 10:56:00;;;;;;;15.55;7.38;;;;;;;5.31;100.00;102071.16;5019082;28;20060;-70
2024/01/28 10:58:30;;;;;;;16.50;7.20;;;;;;;5.36;100.00;102074.63;5033386;28;20632;-71
2024/01/28 11:00:58;;;;;;;17.27;6.93;;;;;;;5.28;100.00;102036.13;5047940;28;20037;-72
2024/01/28 11:03:30;;;;;;;15.68;7.40;;;;;;;5.38;100.00;102052.75;5001756;28;20037;-70
2024/01/28 11:05:59;;;;;;;10.80;7.00;;;;;;;5.36;100.00;102038.72;5017844;28;20041;-71
2024/01/28 11:08:29;;;;;;;12.35;7.25;;;;;;;5.43;100.00;102030.00;5045561;28;20049;-72
2024/01/28 11:10:57;;;;;;;20.80;8.35;;;;;;;5.47;100.00;102036.13;5018839;28;20115;-72
2024/01/28 11:13:29;;;;;;;14.45;7.90;;;;;;;5.52;100.00;102029.97;5023507;28;20072;-71
2024/01/28 11:15:59;;;;;;;15.02;7.35;;;;;;;5.57;100.00;102032.63;5034752;28;20095;-72
2024/01/28 11:18:32;;;;;;;16.60;7.55;;;;;;;5.57;100.00;102030.88;5044355;28;20041;-71
2024/01/28 11:21:12;;;;;;;13.55;7.38;;;;;;;5.59;100.00;102031.75;5045839;28;20042;-70
2024/01/28 11:23:45;;;;;;;15.95;8.02;;;;;;;5.67;100.00;102023.84;5020314;28;20049;-72
2024/01/28 11:26:17;;;;;;;13.95;6.75;;;;;;;5.77;100.00;102024.72;5048882;28;20102;-71